Time;durP1;ratioP1;P1;durP2;ratioP2;P2;SDS_P1;SDS_P2;PMS_P1;PMS_P2;Temp;Humidity;BMP_temperature;BMP_pressure;BME280_temperature;BME280_humidity;BME280_pressure;Samples;Min_cycle;Max_cycle;Signal;HPM_P1;HPM_P2
2020/12/29 00:01:41;;;;;;;4.73;4.43;;;7.30;96.40;;;;;;5057794;28;20399;-74
2020/12/29 00:04:09;;;;;;;6.40;5.13;;;7.40;96.20;;;;;;5058283;28;20443;-75
2020/12/29 00:06:42;;;;;;;4.77;4.37;;;7.40;96.20;;;;;;5051928;28;20784;-76
2020/12/29 00:09:08;;;;;;;5.30;4.90;;;7.50;96.00;;;;;;5051366;28;20492;-75
2020/12/29 00:11:33;;;;;;;8.07;7.37;;;7.50;95.90;;;;;;5051947;28;20436;-75
2020/12/29 00:13:59;;;;;;;8.33;7.53;;;7.50;95.90;;;;;;5050438;28;20865;-75
2020/12/29 00:16:25;;;;;;;5.67;5.27;;;7.50;95.80;;;;;;5053909;28;20183;-75
2020/12/29 00:18:51;;;;;;;4.10;3.90;;;7.50;95.60;;;;;;5051613;28;20178;-75
2020/12/29 00:21:20;;;;;;;4.77;4.47;;;7.50;95.70;;;;;;5050183;28;20180;-75
2020/12/29 00:23:46;;;;;;;3.97;3.77;;;7.50;95.70;;;;;;5053246;28;20436;-75
2020/12/29 00:26:13;;;;;;;3.80;3.60;;;7.40;95.50;;;;;;5059610;28;20474;-75
2020/12/29 00:28:39;;;;;;;4.13;3.83;;;7.40;95.70;;;;;;5058405;28;20399;-75
2020/12/29 00:31:05;;;;;;;4.57;4.30;;;7.40;95.70;;;;;;5060107;28;20408;-76
2020/12/29 00:33:31;;;;;;;4.00;3.70;;;7.40;95.70;;;;;;5060147;28;20687;-75
2020/12/29 00:35:57;;;;;;;3.83;3.63;;;7.30;95.60;;;;;;5058396;28;20431;-75
2020/12/29 00:38:24;;;;;;;3.50;3.30;;;7.30;95.60;;;;;;5061319;28;20391;-76
2020/12/29 00:40:49;;;;;;;3.40;3.30;;;7.20;95.50;;;;;;5060897;28;20468;-75
2020/12/29 00:43:15;;;;;;;3.70;3.50;;;7.20;95.40;;;;;;5059401;28;20641;-76
2020/12/29 00:45:41;;;;;;;4.40;4.10;;;7.10;95.40;;;;;;5061359;28;20234;-76
2020/12/29 00:48:07;;;;;;;4.40;3.60;;;7.10;95.20;;;;;;5063645;28;20189;-76
2020/12/29 00:50:33;;;;;;;4.60;4.20;;;7.00;95.30;;;;;;5061860;28;20484;-75
2020/12/29 00:52:58;;;;;;;4.10;3.90;;;6.90;95.10;;;;;;5054350;28;20179;-75
2020/12/29 00:55:24;;;;;;;5.33;4.53;;;6.90;95.30;;;;;;5063478;28;20602;-75
2020/12/29 00:57:50;;;;;;;4.80;4.50;;;6.80;95.00;;;;;;5063711;28;20177;-75
2020/12/29 01:00:16;;;;;;;4.70;4.40;;;6.80;95.30;;;;;;5064484;28;20235;-75
2020/12/29 01:02:43;;;;;;;5.20;4.80;;;6.70;95.30;;;;;;5062909;28;20206;-75
2020/12/29 01:05:09;;;;;;;4.97;4.57;;;6.70;95.60;;;;;;5058460;28;20202;-75
2020/12/29 01:07:38;;;;;;;4.47;4.17;;;6.60;95.90;;;;;;5055555;28;20396;-75
2020/12/29 01:10:04;;;;;;;4.78;4.40;;;6.60;95.90;;;;;;5054806;28;20487;-75
2020/12/29 01:12:31;;;;;;;4.82;4.43;;;6.60;96.20;;;;;;5058681;28;20171;-75
2020/12/29 01:14:57;;;;;;;4.33;4.13;;;6.50;96.50;;;;;;5063957;28;20190;-78
2020/12/29 01:17:23;;;;;;;4.73;4.43;;;6.40;97.00;;;;;;5062623;28;20720;-75
2020/12/29 01:19:48;;;;;;;4.73;4.43;;;6.20;97.30;;;;;;5063369;28;20204;-76
2020/12/29 01:22:15;;;;;;;5.70;5.30;;;6.10;97.70;;;;;;5061567;28;20357;-76
2020/12/29 01:24:41;;;;;;;6.13;5.63;;;6.00;98.10;;;;;;5063532;28;20226;-75
2020/12/29 01:27:06;;;;;;;5.38;4.97;;;5.80;98.40;;;;;;5064036;28;20210;-76
2020/12/29 01:29:32;;;;;;;5.90;5.40;;;5.70;98.70;;;;;;5062821;28;20654;-75
2020/12/29 01:31:59;;;;;;;5.57;5.10;;;5.60;99.20;;;;;;5054231;28;20176;-76
2020/12/29 01:34:24;;;;;;;5.15;4.75;;;5.70;99.20;;;;;;5037383;28;20277;-76
2020/12/29 01:36:50;;;;;;;5.57;5.17;;;5.90;98.80;;;;;;5055010;28;20685;-76
2020/12/29 01:39:16;;;;;;;5.40;4.90;;;5.90;98.50;;;;;;5054038;28;20767;-76
2020/12/29 01:41:42;;;;;;;5.63;5.00;;;6.00;98.30;;;;;;5037195;28;20619;-76
2020/12/29 01:44:18;;;;;;;4.93;4.63;;;6.00;97.90;;;;;;5053798;28;20474;-75
2020/12/29 01:46:51;;;;;;;4.38;4.07;;;6.00;97.40;;;;;;5054973;28;20240;-76
2020/12/29 01:49:18;;;;;;;4.90;4.60;;;5.90;97.50;;;;;;5054076;28;20795;-75
2020/12/29 01:51:44;;;;;;;5.22;4.72;;;6.00;97.60;;;;;;5054731;28;20182;-75
2020/12/29 01:54:10;;;;;;;5.07;4.68;;;6.00;97.60;;;;;;5053861;28;20215;-75
2020/12/29 01:56:38;;;;;;;4.60;4.30;;;6.00;97.50;;;;;;5054187;28;20652;-75
2020/12/29 01:59:11;;;;;;;4.68;4.25;;;5.90;97.30;;;;;;5053723;28;20751;-75
2020/12/29 02:01:41;;;;;;;4.75;4.45;;;5.90;97.10;;;;;;5053614;28;20182;-75
2020/12/29 02:04:07;;;;;;;4.85;4.55;;;6.00;97.30;;;;;;5052866;28;20555;-76
2020/12/29 02:06:39;;;;;;;4.80;4.50;;;5.90;97.40;;;;;;5053097;28;20174;-75
2020/12/29 02:09:05;;;;;;;5.22;4.72;;;5.80;97.20;;;;;;5053393;28;20185;-75
2020/12/29 02:11:32;;;;;;;4.78;4.47;;;5.60;97.50;;;;;;5054393;28;20180;-75
2020/12/29 02:13:58;;;;;;;5.90;5.40;;;5.60;97.80;;;;;;5054082;28;20269;-78
2020/12/29 02:16:24;;;;;;;5.03;4.53;;;5.70;97.70;;;;;;5053637;28;20315;-75
2020/12/29 02:18:50;;;;;;;4.47;4.20;;;5.70;97.40;;;;;;5054002;28;20772;-76
2020/12/29 02:21:16;;;;;;;4.90;4.50;;;5.70;97.10;;;;;;5053424;28;20223;-76
2020/12/29 02:23:43;;;;;;;4.37;3.97;;;5.70;96.90;;;;;;5054152;28;20260;-75
2020/12/29 02:26:09;;;;;;;4.65;4.25;;;5.60;96.50;;;;;;5052872;28;20360;-75
2020/12/29 02:28:35;;;;;;;4.10;3.90;;;5.60;96.30;;;;;;5086115;28;20264;-75
2020/12/29 02:31:01;;;;;;;4.50;4.20;;;5.50;96.00;;;;;;5053517;28;20185;-78
2020/12/29 02:33:27;;;;;;;4.38;4.07;;;5.50;95.80;;;;;;5054039;28;20208;-75
2020/12/29 02:35:53;;;;;;;4.43;4.22;;;5.40;95.50;;;;;;5053931;28;20200;-74
2020/12/29 02:38:22;;;;;;;4.63;4.30;;;5.40;95.70;;;;;;5053233;28;20169;-75
2020/12/29 02:40:49;;;;;;;5.13;4.68;;;5.40;95.80;;;;;;5052960;28;20219;-75
2020/12/29 02:43:15;;;;;;;4.57;4.28;;;5.30;95.70;;;;;;5052979;28;20170;-75
2020/12/29 02:45:41;;;;;;;4.83;4.53;;;5.30;95.70;;;;;;5053694;28;20288;-74
2020/12/29 02:48:07;;;;;;;5.40;5.00;;;5.30;95.60;;;;;;5053107;28;20438;-75
2020/12/29 02:50:32;;;;;;;5.00;4.60;;;5.20;95.50;;;;;;5051974;28;20192;-75
2020/12/29 02:52:59;;;;;;;5.83;4.70;;;5.20;95.80;;;;;;5053188;28;20178;-78
2020/12/29 02:55:25;;;;;;;5.57;5.00;;;5.20;96.20;;;;;;5053143;28;20717;-75
2020/12/29 02:57:51;;;;;;;5.72;5.25;;;5.20;96.50;;;;;;5051917;28;20185;-75
2020/12/29 03:00:17;;;;;;;5.37;4.90;;;5.10;97.40;;;;;;5052927;28;20170;-75
2020/12/29 03:02:42;;;;;;;5.60;5.10;;;5.00;97.90;;;;;;5053050;28;20192;-75
2020/12/29 03:05:08;;;;;;;6.37;5.10;;;5.00;98.00;;;;;;5052335;28;20205;-76
2020/12/29 03:07:34;;;;;;;5.70;5.30;;;5.00;97.80;;;;;;5053429;28;20181;-75
2020/12/29 03:10:00;;;;;;;5.83;5.33;;;5.10;97.70;;;;;;5051864;28;20182;-78
2020/12/29 03:12:25;;;;;;;5.93;5.40;;;5.00;98.00;;;;;;5053034;28;20214;-75
2020/12/29 03:14:51;;;;;;;5.20;4.70;;;5.00;98.20;;;;;;5053160;28;20176;-75
2020/12/29 03:17:17;;;;;;;5.60;5.10;;;5.10;98.20;;;;;;5050935;28;20319;-75
2020/12/29 03:19:42;;;;;;;8.50;7.30;;;5.10;98.20;;;;;;5051970;28;20219;-75
2020/12/29 03:22:08;;;;;;;5.70;5.23;;;5.20;98.20;;;;;;5052174;28;20200;-75
2020/12/29 03:24:34;;;;;;;5.20;4.80;;;5.20;98.20;;;;;;5052331;28;20303;-75
2020/12/29 03:27:00;;;;;;;5.40;5.00;;;5.30;98.20;;;;;;5053102;28;20937;-76
2020/12/29 03:29:25;;;;;;;5.03;4.70;;;5.30;98.00;;;;;;5051845;28;20219;-75
2020/12/29 03:31:51;;;;;;;5.87;5.20;;;5.30;97.90;;;;;;5051648;28;20182;-75
2020/12/29 03:34:27;;;;;;;5.90;5.40;;;5.40;98.00;;;;;;5052266;28;20177;-75
2020/12/29 03:36:53;;;;;;;5.07;4.68;;;5.40;97.90;;;;;;5052989;28;20540;-75
2020/12/29 03:39:19;;;;;;;5.10;4.80;;;5.40;97.90;;;;;;5050501;28;20174;-76
2020/12/29 03:41:45;;;;;;;5.40;5.00;;;5.50;97.80;;;;;;5051568;28;20845;-75
2020/12/29 03:44:11;;;;;;;4.63;4.33;;;5.50;97.80;;;;;;5051842;28;20252;-75
2020/12/29 03:46:37;;;;;;;4.80;4.40;;;5.50;97.80;;;;;;5052727;28;20379;-77
2020/12/29 03:49:03;;;;;;;5.00;4.70;;;5.50;97.80;;;;;;5052182;28;20269;-80
2020/12/29 03:51:29;;;;;;;5.15;4.75;;;5.50;97.90;;;;;;5052091;28;20458;-78
2020/12/29 03:53:55;;;;;;;5.47;4.67;;;5.50;97.90;;;;;;5068057;28;20614;-77
2020/12/29 03:56:21;;;;;;;4.93;4.53;;;5.50;97.90;;;;;;5051626;28;20217;-78
2020/12/29 03:58:46;;;;;;;5.00;4.60;;;5.50;97.80;;;;;;5068076;28;20181;-78
2020/12/29 04:01:12;;;;;;;4.80;4.50;;;5.60;97.90;;;;;;5051614;28;20204;-78
2020/12/29 04:03:41;;;;;;;4.73;4.37;;;5.50;97.90;;;;;;5052206;28;20173;-78
2020/12/29 04:06:07;;;;;;;5.13;4.75;;;5.50;97.90;;;;;;5051639;28;20216;-78
2020/12/29 04:08:32;;;;;;;5.03;4.70;;;5.50;97.80;;;;;;5050977;28;20176;-78
2020/12/29 04:10:58;;;;;;;5.50;5.10;;;5.50;98.10;;;;;;5052450;28;20253;-78
2020/12/29 04:13:23;;;;;;;5.67;5.37;;;5.50;98.10;;;;;;5051056;28;20180;-78
2020/12/29 04:15:49;;;;;;;5.27;4.90;;;5.50;98.10;;;;;;5051782;28;20178;-77
2020/12/29 04:18:15;;;;;;;4.93;4.63;;;5.60;98.10;;;;;;5050782;28;20185;-77
2020/12/29 04:20:41;;;;;;;4.80;4.50;;;5.60;98.00;;;;;;5053740;28;20181;-77
2020/12/29 04:23:06;;;;;;;6.10;5.60;;;5.60;98.00;;;;;;5055051;28;20184;-81
2020/12/29 04:25:32;;;;;;;4.53;4.23;;;5.60;98.00;;;;;;5049663;28;20226;-77
2020/12/29 04:27:58;;;;;;;5.57;5.17;;;5.60;98.00;;;;;;5051844;28;20182;-77
2020/12/29 04:30:23;;;;;;;5.57;5.10;;;5.60;98.20;;;;;;5050710;28;20716;-77
2020/12/29 04:32:49;;;;;;;5.33;4.93;;;5.60;98.30;;;;;;5050807;28;20178;-76
2020/12/29 04:35:15;;;;;;;5.03;4.73;;;5.60;98.50;;;;;;5051026;28;20182;-78
2020/12/29 04:37:41;;;;;;;5.55;5.05;;;5.70;98.40;;;;;;5051608;28;20235;-77
2020/12/29 04:40:07;;;;;;;5.50;5.10;;;5.70;98.30;;;;;;5051539;28;20521;-80
2020/12/29 04:42:33;;;;;;;5.60;5.10;;;5.70;98.20;;;;;;5051211;28;20181;-77
2020/12/29 04:44:58;;;;;;;5.83;5.37;;;5.80;98.20;;;;;;5052017;28;20474;-77
2020/12/29 04:47:28;;;;;;;5.50;5.10;;;5.80;98.10;;;;;;5050985;28;20272;-76
2020/12/29 04:49:57;;;;;;;6.95;6.35;;;5.80;98.20;;;;;;5050194;28;20257;-77
2020/12/29 04:52:23;;;;;;;5.53;5.10;;;5.80;98.20;;;;;;5050745;28;20189;-77
2020/12/29 04:54:54;;;;;;;5.60;5.20;;;5.80;98.10;;;;;;5050175;28;20185;-77
2020/12/29 04:57:22;;;;;;;6.10;5.28;;;5.80;98.10;;;;;;5051128;28;20154;-75
2020/12/29 04:59:49;;;;;;;6.00;5.57;;;5.90;98.00;;;;;;5051157;28;20174;-77
2020/12/29 05:02:15;;;;;;;6.30;5.80;;;5.90;97.90;;;;;;5050886;28;20190;-77
2020/12/29 05:04:41;;;;;;;5.53;5.13;;;5.90;98.10;;;;;;5051464;28;20248;-75
2020/12/29 05:07:07;;;;;;;6.00;5.50;;;5.90;97.80;;;;;;5050308;28;20185;-78
2020/12/29 05:09:33;;;;;;;5.07;4.70;;;5.90;98.20;;;;;;5049884;28;20559;-75
2020/12/29 05:11:59;;;;;;;5.35;4.95;;;5.90;98.00;;;;;;5051724;28;20292;-75
2020/12/29 05:14:26;;;;;;;5.40;5.00;;;5.90;97.90;;;;;;5050265;28;20257;-75
2020/12/29 05:16:53;;;;;;;5.60;5.28;;;5.90;97.90;;;;;;5051645;28;20175;-75
2020/12/29 05:19:21;;;;;;;5.60;5.20;;;5.90;97.90;;;;;;5050649;28;20696;-75
2020/12/29 05:21:48;;;;;;;6.07;5.57;;;5.90;98.10;;;;;;5051958;28;20643;-75
2020/12/29 05:24:22;;;;;;;5.68;5.28;;;5.90;98.10;;;;;;5050238;28;20184;-75
2020/12/29 05:26:57;;;;;;;6.20;5.60;;;5.90;98.20;;;;;;5083769;28;20214;-75
2020/12/29 05:29:30;;;;;;;6.10;5.57;;;5.90;98.40;;;;;;5050851;28;20165;-75
2020/12/29 05:31:56;;;;;;;5.65;5.22;;;5.90;98.60;;;;;;5052491;28;20620;-75
2020/12/29 05:34:24;;;;;;;6.53;6.03;;;5.90;98.70;;;;;;5054958;28;20213;-75
2020/12/29 05:36:51;;;;;;;5.30;5.00;;;5.90;98.80;;;;;;5055489;28;20432;-75
2020/12/29 05:39:18;;;;;;;5.32;4.93;;;6.00;98.60;;;;;;5054513;28;20177;-75
2020/12/29 05:41:46;;;;;;;5.00;4.60;;;6.00;98.50;;;;;;5055375;28;20186;-75
2020/12/29 05:44:29;;;;;;;5.87;4.70;;;6.10;98.50;;;;;;5054378;28;20178;-75
2020/12/29 05:46:56;;;;;;;5.47;5.03;;;6.10;98.30;;;;;;5055507;28;20449;-75
2020/12/29 05:49:23;;;;;;;5.10;4.80;;;6.10;98.20;;;;;;5054497;28;20269;-75
2020/12/29 05:51:50;;;;;;;6.20;5.45;;;6.20;98.30;;;;;;5055473;28;20185;-75
2020/12/29 05:54:17;;;;;;;5.88;5.38;;;6.20;98.20;;;;;;5053320;28;20293;-75
2020/12/29 05:56:43;;;;;;;5.70;5.30;;;6.20;98.00;;;;;;5055040;28;20178;-75
2020/12/29 05:59:14;;;;;;;5.78;5.28;;;6.30;97.90;;;;;;5054509;28;20182;-79
2020/12/29 06:01:47;;;;;;;5.68;5.18;;;6.30;97.80;;;;;;5055002;28;20500;-75
2020/12/29 06:04:13;;;;;;;5.40;5.00;;;6.30;97.70;;;;;;5052857;28;20491;-75
2020/12/29 06:06:44;;;;;;;5.90;5.40;;;6.30;97.80;;;;;;5054338;28;20692;-76
2020/12/29 06:09:12;;;;;;;5.07;4.77;;;6.30;97.80;;;;;;5054365;28;20587;-78
2020/12/29 06:11:46;;;;;;;5.10;4.70;;;6.40;98.00;;;;;;5060822;28;20490;-76
2020/12/29 06:14:25;;;;;;;5.80;5.40;;;6.30;98.00;;;;;;5073852;28;20420;-78
2020/12/29 06:16:53;;;;;;;6.13;5.37;;;6.30;98.10;;;;;;5070051;28;20248;-75
2020/12/29 06:19:22;;;;;;;5.68;5.00;;;6.30;98.10;;;;;;5053740;28;20409;-76
2020/12/29 06:22:05;;;;;;;5.53;5.13;;;6.30;98.10;;;;;;5066437;28;20203;-75
2020/12/29 06:24:33;;;;;;;5.90;5.40;;;6.30;98.00;;;;;;5033058;28;20415;-75
2020/12/29 06:27:01;;;;;;;5.37;4.97;;;6.30;98.10;;;;;;5034094;28;20430;-75
2020/12/29 06:29:43;;;;;;;5.40;5.00;;;6.30;98.00;;;;;;5032056;28;20784;-75
2020/12/29 06:32:17;;;;;;;6.00;5.60;;;6.30;98.00;;;;;;5051818;28;20413;-75
2020/12/29 06:34:44;;;;;;;6.63;5.97;;;6.30;98.00;;;;;;5054009;28;20407;-76
2020/12/29 06:37:28;;;;;;;5.93;5.43;;;6.40;98.10;;;;;;5052605;28;20424;-75
2020/12/29 06:40:06;;;;;;;6.00;5.50;;;6.30;97.90;;;;;;5052679;28;20401;-75
2020/12/29 06:42:43;;;;;;;6.07;5.47;;;6.30;98.00;;;;;;5051598;28;20701;-75
2020/12/29 06:45:10;;;;;;;5.43;4.93;;;6.30;98.00;;;;;;5052568;28;20418;-75
2020/12/29 06:47:40;;;;;;;6.53;6.03;;;6.20;97.80;;;;;;5052932;28;20413;-75
2020/12/29 06:50:32;;;;;;;6.88;5.97;;;6.20;97.70;;;;;;5051879;28;20201;-76
2020/12/29 06:52:59;;;;;;;8.50;5.17;;;6.20;97.50;;;;;;5053621;28;20217;-75
2020/12/29 06:55:28;;;;;;;6.00;5.47;;;6.10;97.10;;;;;;5052688;28;20966;-75
2020/12/29 06:57:54;;;;;;;5.32;4.82;;;6.10;97.10;;;;;;5052728;28;20178;-77
2020/12/29 07:00:22;;;;;;;5.33;4.93;;;6.10;97.00;;;;;;5050597;28;20212;-76
2020/12/29 07:02:50;;;;;;;6.40;5.90;;;6.10;97.00;;;;;;5053261;28;20189;-76
2020/12/29 07:05:23;;;;;;;6.33;5.73;;;6.00;97.10;;;;;;5052235;28;20677;-78
2020/12/29 07:07:57;;;;;;;5.45;5.05;;;6.00;97.00;;;;;;5052867;28;20782;-76
2020/12/29 07:10:46;;;;;;;6.82;6.32;;;5.90;96.90;;;;;;5051981;28;20181;-76
2020/12/29 07:13:20;;;;;;;9.95;6.82;;;5.90;96.90;;;;;;5053246;28;20177;-76
2020/12/29 07:15:55;;;;;;;7.03;6.53;;;5.90;97.10;;;;;;5053272;28;20595;-76
2020/12/29 07:18:26;;;;;;;6.55;6.05;;;5.90;97.10;;;;;;5050498;28;20169;-76
2020/12/29 07:20:56;;;;;;;8.85;6.75;;;5.80;97.00;;;;;;5052894;28;20159;-76
2020/12/29 07:23:25;;;;;;;6.70;6.13;;;5.80;97.10;;;;;;5052143;28;20182;-76
2020/12/29 07:25:56;;;;;;;6.40;5.80;;;5.80;97.00;;;;;;5052464;28;20264;-76
2020/12/29 07:28:28;;;;;;;7.10;6.50;;;5.70;96.60;;;;;;5051640;28;20170;-76
2020/12/29 07:30:54;;;;;;;7.10;6.40;;;5.70;96.60;;;;;;5053043;28;20495;-75
2020/12/29 07:33:27;;;;;;;6.65;6.15;;;5.60;96.50;;;;;;5052005;28;20200;-76
2020/12/29 07:35:53;;;;;;;7.57;6.88;;;5.60;96.70;;;;;;5032942;28;20188;-76
2020/12/29 07:38:25;;;;;;;6.60;6.10;;;5.60;97.20;;;;;;5032162;28;20173;-77
2020/12/29 07:40:51;;;;;;;7.00;6.30;;;5.60;97.50;;;;;;5032882;28;20258;-75
2020/12/29 07:43:17;;;;;;;6.68;6.18;;;5.60;97.60;;;;;;5031233;28;20178;-78
2020/12/29 07:45:43;;;;;;;6.38;5.95;;;5.60;97.80;;;;;;5033231;28;20210;-76
2020/12/29 07:48:09;;;;;;;6.38;5.53;;;5.60;97.80;;;;;;5052550;28;20174;-75
2020/12/29 07:50:37;;;;;;;6.53;5.93;;;5.60;98.00;;;;;;5050542;28;20174;-75
2020/12/29 07:53:04;;;;;;;6.72;6.13;;;5.60;98.20;;;;;;5052404;28;20431;-75
2020/12/29 07:55:31;;;;;;;7.15;6.55;;;5.60;98.40;;;;;;5049678;28;20216;-75
2020/12/29 07:58:03;;;;;;;7.63;6.85;;;5.60;98.50;;;;;;5052146;28;20185;-75
2020/12/29 08:00:29;;;;;;;6.82;6.22;;;5.60;98.60;;;;;;5051667;28;20165;-77
2020/12/29 08:02:55;;;;;;;6.80;6.20;;;5.60;98.40;;;;;;5052168;28;20703;-77
2020/12/29 08:05:22;;;;;;;7.13;6.43;;;5.60;98.50;;;;;;5050631;28;20247;-78
2020/12/29 08:07:52;;;;;;;7.20;6.68;;;5.70;98.50;;;;;;5050852;28;20432;-77
2020/12/29 08:10:26;;;;;;;7.03;6.50;;;5.70;98.50;;;;;;5050758;28;20180;-79
2020/12/29 08:12:56;;;;;;;7.10;6.45;;;5.80;98.50;;;;;;5050702;28;20178;-77
2020/12/29 08:15:36;;;;;;;8.18;7.47;;;5.80;98.60;;;;;;5057528;28;20264;-78
2020/12/29 08:18:10;;;;;;;7.60;7.00;;;5.80;98.60;;;;;;5072413;28;20252;-77
2020/12/29 08:20:48;;;;;;;8.98;8.15;;;5.80;98.70;;;;;;5071247;28;20181;-75
2020/12/29 08:23:16;;;;;;;8.55;7.78;;;5.90;98.90;;;;;;5071804;28;20177;-77
2020/12/29 08:25:53;;;;;;;8.20;7.50;;;5.90;99.10;;;;;;5070017;28;21054;-77
2020/12/29 08:28:21;;;;;;;8.00;7.25;;;5.90;99.20;;;;;;5052360;28;20536;-79
2020/12/29 08:30:46;;;;;;;9.05;8.18;;;6.00;99.40;;;;;;5051025;28;20182;-77
2020/12/29 08:33:18;;;;;;;9.13;8.23;;;6.00;99.40;;;;;;5050455;28;20585;-77
2020/12/29 08:35:51;;;;;;;9.73;8.65;;;6.10;99.40;;;;;;5050171;28;20609;-76
2020/12/29 08:38:41;;;;;;;165.85;94.93;;;6.10;99.30;;;;;;5031239;28;20698;-76
2020/12/29 08:41:13;;;;;;;50.72;31.10;;;6.20;99.60;;;;;;5037724;28;20180;-75
2020/12/29 08:43:47;;;;;;;13.30;10.40;;;6.30;99.70;;;;;;5049885;28;20826;-76
2020/12/29 08:46:15;;;;;;;9.60;8.70;;;6.40;99.60;;;;;;5050958;28;20700;-75
2020/12/29 08:48:52;;;;;;;9.15;8.25;;;6.40;99.40;;;;;;5050253;28;20181;-75
2020/12/29 08:51:25;;;;;;;9.80;8.60;;;6.50;99.20;;;;;;5050767;28;20272;-80
2020/12/29 08:54:05;;;;;;;11.57;9.43;;;6.60;98.90;;;;;;5051918;28;20400;-75
2020/12/29 08:56:30;;;;;;;9.13;8.27;;;6.80;98.80;;;;;;5049822;28;20383;-75
2020/12/29 08:58:56;;;;;;;16.07;12.80;;;7.00;98.60;;;;;;5050822;28;20453;-75
2020/12/29 09:01:32;;;;;;;9.70;8.70;;;7.50;98.30;;;;;;5051561;28;20264;-76
2020/12/29 09:04:21;;;;;;;9.20;8.00;;;8.20;97.20;;;;;;5052297;28;20174;-75
2020/12/29 09:06:58;;;;;;;8.67;7.00;;;9.00;95.20;;;;;;5051710;28;20748;-75
2020/12/29 09:09:24;;;;;;;8.20;7.50;;;9.40;92.80;;;;;;5053898;28;20423;-77
2020/12/29 09:12:04;;;;;;;8.53;7.83;;;9.40;92.50;;;;;;5055626;28;20883;-74
2020/12/29 09:14:29;;;;;;;8.93;8.03;;;9.30;92.40;;;;;;5054395;28;20411;-74
2020/12/29 09:16:59;;;;;;;9.60;8.50;;;9.20;92.80;;;;;;5055573;28;20412;-74
2020/12/29 09:19:25;;;;;;;12.33;8.90;;;9.10;92.80;;;;;;5054622;28;20170;-75
2020/12/29 09:22:12;;;;;;;9.53;8.60;;;9.00;93.10;;;;;;5055277;28;20427;-74
2020/12/29 09:24:53;;;;;;;11.03;8.53;;;8.80;93.30;;;;;;5055982;28;20177;-74
2020/12/29 09:27:33;;;;;;;9.80;8.87;;;8.70;93.60;;;;;;5055142;28;20865;-74
2020/12/29 09:30:11;;;;;;;9.13;8.30;;;8.60;93.80;;;;;;5054988;28;20414;-74
2020/12/29 09:32:38;;;;;;;9.53;8.57;;;8.50;94.00;;;;;;5054048;28;20428;-74
2020/12/29 09:35:25;;;;;;;9.93;8.97;;;8.40;94.00;;;;;;5055290;28;20410;-74
2020/12/29 09:37:55;;;;;;;9.77;8.77;;;8.30;94.40;;;;;;5054604;28;20435;-74
2020/12/29 09:40:21;;;;;;;9.33;8.13;;;8.20;94.60;;;;;;5055173;28;20391;-75
2020/12/29 09:42:48;;;;;;;8.83;7.90;;;8.20;94.60;;;;;;5053664;28;20426;-75
2020/12/29 09:45:20;;;;;;;11.33;9.13;;;8.10;94.50;;;;;;5054430;28;20588;-75
2020/12/29 09:47:46;;;;;;;11.00;8.30;;;8.10;94.70;;;;;;5053271;28;20401;-75
2020/12/29 09:50:12;;;;;;;13.03;8.60;;;8.10;94.80;;;;;;5053368;28;20451;-75
2020/12/29 09:52:38;;;;;;;9.30;8.40;;;8.10;94.90;;;;;;5053588;28;20406;-75
2020/12/29 09:55:05;;;;;;;10.37;8.80;;;8.00;95.10;;;;;;5053214;28;20434;-76
2020/12/29 09:57:31;;;;;;;9.17;8.30;;;8.00;95.20;;;;;;5053444;28;20885;-76
2020/12/29 09:59:57;;;;;;;9.10;8.27;;;7.90;95.20;;;;;;5054134;28;20425;-77
2020/12/29 10:02:23;;;;;;;9.27;8.47;;;7.90;95.30;;;;;;5053982;28;20778;-78
2020/12/29 10:04:49;;;;;;;8.80;8.00;;;7.90;95.40;;;;;;5054096;28;20425;-77
2020/12/29 10:07:15;;;;;;;8.97;8.10;;;7.90;95.30;;;;;;5054503;28;20429;-75
2020/12/29 10:09:41;;;;;;;9.90;9.00;;;7.90;95.30;;;;;;5053433;28;20742;-76
2020/12/29 10:12:06;;;;;;;10.47;9.47;;;7.90;95.30;;;;;;5054421;28;20183;-75
2020/12/29 10:14:32;;;;;;;11.90;9.50;;;7.90;95.40;;;;;;5052890;28;20640;-76
2020/12/29 10:16:58;;;;;;;10.10;8.40;;;7.90;95.30;;;;;;5053922;28;20258;-75
2020/12/29 10:19:24;;;;;;;9.10;8.07;;;7.90;95.40;;;;;;5061527;28;20191;-75
2020/12/29 10:21:54;;;;;;;8.43;7.63;;;7.90;95.50;;;;;;5052639;28;20185;-75
2020/12/29 10:24:19;;;;;;;8.73;7.83;;;7.90;95.20;;;;;;5054488;28;20184;-75
2020/12/29 10:26:50;;;;;;;9.47;8.17;;;7.90;95.20;;;;;;5053491;28;20818;-75
2020/12/29 10:29:16;;;;;;;8.20;7.47;;;7.90;95.30;;;;;;5055074;28;20645;-77
2020/12/29 10:31:42;;;;;;;9.07;7.20;;;7.80;95.30;;;;;;5053238;28;20426;-76
2020/12/29 10:34:11;;;;;;;10.00;8.13;;;7.80;95.40;;;;;;5053401;28;20419;-75
2020/12/29 10:36:37;;;;;;;10.30;9.20;;;7.80;95.50;;;;;;5033804;28;20221;-75
2020/12/29 10:39:04;;;;;;;9.27;8.30;;;7.80;95.60;;;;;;5034726;28;20596;-75
2020/12/29 10:41:32;;;;;;;9.13;8.33;;;7.70;95.60;;;;;;5052309;28;20451;-76
2020/12/29 10:43:57;;;;;;;10.30;9.07;;;7.60;95.90;;;;;;5054257;28;20446;-75
2020/12/29 10:46:24;;;;;;;10.53;9.53;;;7.60;95.90;;;;;;5061111;28;20497;-75
2020/12/29 10:48:50;;;;;;;9.30;8.50;;;7.50;96.00;;;;;;5061644;28;20715;-75
2020/12/29 10:51:20;;;;;;;15.30;11.17;;;7.60;96.00;;;;;;5062521;28;20747;-75
2020/12/29 10:53:46;;;;;;;10.67;9.57;;;7.60;96.20;;;;;;5061736;28;20660;-75
2020/12/29 10:56:12;;;;;;;11.83;10.23;;;7.50;96.10;;;;;;5065480;28;20561;-75
2020/12/29 10:58:39;;;;;;;10.60;9.60;;;7.40;96.50;;;;;;5051699;28;20822;-75
2020/12/29 11:01:05;;;;;;;11.40;10.30;;;7.40;97.00;;;;;;5053142;28;20416;-75
2020/12/29 11:03:31;;;;;;;11.80;10.60;;;7.40;97.20;;;;;;5052134;28;20398;-76
2020/12/29 11:05:57;;;;;;;13.93;12.47;;;7.30;97.50;;;;;;5053306;28;20798;-75
2020/12/29 11:08:26;;;;;;;13.60;12.20;;;7.30;97.90;;;;;;5053288;28;20209;-75
2020/12/29 11:10:53;;;;;;;14.47;12.07;;;7.30;97.80;;;;;;5051541;28;20425;-75
2020/12/29 11:13:19;;;;;;;14.17;12.47;;;7.30;98.00;;;;;;5052895;28;20428;-75
2020/12/29 11:15:47;;;;;;;14.23;12.63;;;7.30;98.00;;;;;;5054708;28;20420;-75
2020/12/29 11:18:13;;;;;;;16.23;13.87;;;7.20;98.30;;;;;;5059232;28;20408;-75
2020/12/29 11:20:39;;;;;;;17.87;14.83;;;7.10;98.30;;;;;;5052588;28;20421;-75
2020/12/29 11:23:05;;;;;;;20.63;14.47;;;7.10;98.60;;;;;;5052582;28;20401;-75
2020/12/29 11:25:31;;;;;;;15.50;13.80;;;7.20;98.90;;;;;;5052111;28;20484;-77
2020/12/29 11:27:57;;;;;;;18.40;14.30;;;7.10;98.80;;;;;;5053022;28;20197;-75
2020/12/29 11:30:23;;;;;;;14.90;13.40;;;7.10;98.90;;;;;;5051655;28;20188;-73
2020/12/29 11:32:49;;;;;;;17.43;14.00;;;7.00;99.00;;;;;;5051940;28;20463;-73
2020/12/29 11:35:14;;;;;;;16.37;13.57;;;7.00;99.00;;;;;;5052746;28;20256;-74
2020/12/29 11:37:40;;;;;;;20.00;13.77;;;7.00;99.20;;;;;;5084187;28;20184;-74
2020/12/29 11:40:06;;;;;;;236.83;139.70;;;7.00;99.50;;;;;;5052434;28;20184;-74
2020/12/29 11:42:32;;;;;;;407.97;218.77;;;7.10;99.90;;;;;;5048907;28;20617;-75
2020/12/29 11:44:57;;;;;;;41.53;29.07;;;7.20;99.90;;;;;;5051830;28;20699;-75
2020/12/29 11:47:23;;;;;;;18.43;15.87;;;7.20;99.90;;;;;;5053217;28;20183;-75
2020/12/29 11:49:49;;;;;;;16.83;14.67;;;7.30;99.50;;;;;;5051573;28;20265;-75
2020/12/29 11:52:14;;;;;;;17.47;15.30;;;7.20;99.00;;;;;;5052512;28;20256;-75
2020/12/29 11:54:40;;;;;;;17.13;15.37;;;7.10;99.40;;;;;;5051665;28;20210;-75
2020/12/29 11:57:06;;;;;;;16.87;14.27;;;7.00;99.40;;;;;;5084447;28;20586;-75
2020/12/29 11:59:32;;;;;;;17.58;14.48;;;7.10;99.60;;;;;;5051346;28;20623;-76
2020/12/29 12:01:57;;;;;;;25.13;15.73;;;7.10;99.80;;;;;;5084264;28;20626;-75
2020/12/29 12:04:23;;;;;;;19.97;14.60;;;7.20;99.70;;;;;;5057519;28;20169;-75
2020/12/29 12:06:49;;;;;;;16.23;14.47;;;7.10;99.90;;;;;;5051421;28;20296;-75
2020/12/29 12:09:15;;;;;;;17.50;14.83;;;7.20;99.90;;;;;;5052104;28;20229;-75
2020/12/29 12:11:41;;;;;;;16.10;13.37;;;7.10;99.90;;;;;;5049038;28;20178;-72
2020/12/29 12:14:07;;;;;;;15.50;13.83;;;7.00;99.90;;;;;;5051728;28;20381;-72
2020/12/29 12:16:40;;;;;;;15.37;13.23;;;7.00;99.90;;;;;;5050620;28;20423;-72
2020/12/29 12:19:06;;;;;;;14.90;13.40;;;7.00;99.90;;;;;;5051682;28;20545;-76
2020/12/29 12:21:33;;;;;;;14.03;12.40;;;7.00;99.90;;;;;;5048594;28;20412;-76
2020/12/29 12:24:00;;;;;;;14.10;12.70;;;7.00;99.90;;;;;;5052558;28;20692;-75
2020/12/29 12:26:26;;;;;;;16.23;14.50;;;7.00;99.90;;;;;;5052543;28;20476;-75
2020/12/29 12:28:52;;;;;;;14.67;13.27;;;7.10;99.90;;;;;;5050882;28;20395;-75
2020/12/29 12:31:18;;;;;;;16.90;13.50;;;7.10;99.80;;;;;;5051241;28;20414;-75
2020/12/29 12:33:44;;;;;;;15.47;13.87;;;7.10;99.80;;;;;;5050279;28;20884;-75
2020/12/29 12:36:10;;;;;;;18.47;14.40;;;7.00;99.80;;;;;;5050828;28;20397;-80
2020/12/29 12:38:36;;;;;;;17.70;15.33;;;7.10;99.90;;;;;;5049719;28;20434;-75
2020/12/29 12:41:06;;;;;;;15.67;13.67;;;7.10;99.80;;;;;;5052168;28;20402;-76
2020/12/29 12:43:31;;;;;;;18.03;14.80;;;7.20;99.90;;;;;;5049641;28;20186;-77
2020/12/29 12:45:57;;;;;;;17.50;15.60;;;7.20;99.90;;;;;;5056045;28;20455;-75
2020/12/29 12:48:23;;;;;;;18.43;15.20;;;7.10;99.70;;;;;;5054417;28;20202;-75
2020/12/29 12:50:49;;;;;;;16.90;15.07;;;7.10;99.90;;;;;;5054138;28;20190;-76
2020/12/29 12:53:15;;;;;;;16.90;14.83;;;7.10;99.90;;;;;;5055526;28;20399;-76
2020/12/29 12:55:41;;;;;;;15.97;14.27;;;7.10;99.90;;;;;;5053180;28;20450;-76
2020/12/29 12:58:06;;;;;;;17.00;14.23;;;7.10;99.80;;;;;;5052171;28;20213;-78